createdAt,value
2023-01-05T00:01:14.355Z,63.10
2023-01-05T00:02:47.647Z,63.30
2023-01-05T00:04:21.048Z,63.00
2023-01-05T00:06:01.402Z,63.10
2023-01-05T00:07:40.003Z,63.50
2023-01-05T00:09:22.381Z,63.40
2023-01-05T00:11:13.337Z,63.30
2023-01-05T00:13:12.643Z,63.20
2023-01-05T00:15:06.468Z,63.30
2023-01-05T00:17:00.409Z,63.40
2023-01-05T00:18:51.229Z,63.30
2023-01-05T00:20:47.219Z,63.20
2023-01-05T00:22:36.904Z,63.40
2023-01-05T00:24:11.594Z,63.40
2023-01-05T00:25:44.800Z,63.20
2023-01-05T00:27:16.975Z,63.20
2023-01-05T00:28:50.189Z,63.30
2023-01-05T00:30:26.662Z,63.30
2023-01-05T00:31:58.972Z,63.60
2023-01-05T00:33:32.278Z,63.60
2023-01-05T00:35:06.353Z,63.60
2023-01-05T00:36:43.886Z,63.70
2023-01-05T00:38:20.076Z,63.70
2023-01-05T00:39:54.079Z,63.80
2023-01-05T00:41:27.344Z,63.90
2023-01-05T00:43:04.179Z,63.80
2023-01-05T00:44:41.737Z,63.80
2023-01-05T00:46:17.507Z,63.80
2023-01-05T00:47:55.146Z,63.90
2023-01-05T00:49:27.481Z,64.20
2023-01-05T00:51:00.670Z,64.00
2023-01-05T00:52:33.951Z,63.70
2023-01-05T00:54:07.817Z,63.40
2023-01-05T00:55:45.392Z,63.40
2023-01-05T00:57:20.983Z,63.30
2023-01-05T00:58:56.895Z,63.50
2023-01-05T01:00:30.104Z,63.60
2023-01-05T01:02:03.431Z,63.80
2023-01-05T01:03:36.757Z,63.90
2023-01-05T01:05:11.205Z,64.00
2023-01-05T01:06:43.687Z,64.10
2023-01-05T01:08:17.649Z,64.20
2023-01-05T01:09:50.880Z,64.20
2023-01-05T01:11:28.218Z,64.10
2023-01-05T01:13:01.414Z,63.90
2023-01-05T01:14:34.779Z,63.80
2023-01-05T01:16:13.652Z,63.80
2023-01-05T01:17:47.033Z,63.90
2023-01-05T01:19:24.014Z,63.90
2023-01-05T01:20:57.786Z,64.00
2023-01-05T01:22:31.571Z,63.90
2023-01-05T01:24:05.273Z,63.90
2023-01-05T01:25:39.883Z,63.90
2023-01-05T01:27:14.505Z,63.80
2023-01-05T01:28:48.863Z,64.20
2023-01-05T01:30:22.223Z,63.70
2023-01-05T01:31:56.241Z,63.60
2023-01-05T01:33:29.918Z,63.50
2023-01-05T01:35:03.274Z,63.40
2023-01-05T01:36:37.567Z,63.50
2023-01-05T01:38:10.831Z,63.50
2023-01-05T01:39:45.353Z,63.60
2023-01-05T01:41:20.769Z,63.60
2023-01-05T01:42:55.411Z,62.90
2023-01-05T01:44:51.837Z,63.70
2023-01-05T01:46:28.571Z,63.70
2023-01-05T01:48:02.787Z,63.70
2023-01-05T01:49:35.055Z,63.70
2023-01-05T01:51:17.833Z,63.70
2023-01-05T01:52:55.231Z,63.80
2023-01-05T01:54:28.645Z,63.80
2023-01-05T01:56:07.772Z,63.80
2023-01-05T01:57:43.800Z,64.00
2023-01-05T01:59:19.519Z,63.80
2023-01-05T02:00:53.869Z,63.70
2023-01-05T02:02:28.494Z,63.60
2023-01-05T02:04:03.374Z,63.40
2023-01-05T02:05:38.126Z,63.70
2023-01-05T02:07:16.490Z,63.40
2023-01-05T02:08:50.554Z,62.90
2023-01-05T02:10:43.430Z,63.20
2023-01-05T02:12:39.069Z,63.50
2023-01-05T02:14:25.195Z,63.40
2023-01-05T02:16:10.462Z,63.40
2023-01-05T02:18:03.221Z,63.20
2023-01-05T02:20:24.144Z,63.20
2023-01-05T02:22:14.074Z,63.40
2023-01-05T02:24:32.524Z,63.50
2023-01-05T02:26:44.517Z,63.50
2023-01-05T02:28:44.121Z,63.50
2023-01-05T02:31:04.482Z,63.40
2023-01-05T02:32:56.105Z,63.10
2023-01-05T02:34:37.298Z,63.20
2023-01-05T02:36:28.677Z,62.90
2023-01-05T02:38:17.383Z,63.10
2023-01-05T02:39:59.324Z,63.00
2023-01-05T02:41:38.498Z,63.00
2023-01-05T02:43:16.800Z,62.90
2023-01-05T02:44:51.602Z,62.80
2023-01-05T02:46:26.162Z,62.80
2023-01-05T02:47:59.557Z,62.80
2023-01-05T02:49:39.048Z,62.70
2023-01-05T02:51:19.241Z,62.80
2023-01-05T02:52:59.139Z,62.80
2023-01-05T02:54:37.625Z,62.80
2023-01-05T02:56:16.905Z,62.80
2023-01-05T02:57:58.927Z,62.90
2023-01-05T02:59:41.050Z,62.80
2023-01-05T03:01:18.380Z,62.80
2023-01-05T03:03:02.621Z,62.80
2023-01-05T03:04:46.033Z,62.80
2023-01-05T03:06:27.427Z,62.80
2023-01-05T03:08:26.357Z,62.80
2023-01-05T03:10:21.390Z,62.80
2023-01-05T03:12:21.961Z,62.80
2023-01-05T03:14:02.717Z,62.80
2023-01-05T03:15:40.323Z,62.80
2023-01-05T03:17:20.494Z,62.80
2023-01-05T03:19:17.799Z,62.70
2023-01-05T03:20:54.767Z,62.70
2023-01-05T03:22:49.863Z,62.70
2023-01-05T03:24:40.813Z,62.70
2023-01-05T03:26:35.202Z,62.60
2023-01-05T03:28:35.042Z,62.70
2023-01-05T03:30:30.016Z,62.70
2023-01-05T03:32:34.890Z,62.70
2023-01-05T03:34:35.966Z,62.70
2023-01-05T03:36:13.556Z,63.10
2023-01-05T03:37:53.845Z,63.20
2023-01-05T03:39:30.335Z,63.10
2023-01-05T03:41:10.242Z,63.00
2023-01-05T03:42:45.832Z,63.00
2023-01-05T03:44:19.728Z,63.00
2023-01-05T03:45:56.003Z,62.90
2023-01-05T03:47:32.236Z,62.80
2023-01-05T03:49:05.520Z,63.00
2023-01-05T03:50:40.012Z,63.10
2023-01-05T03:52:17.210Z,63.20
2023-01-05T03:53:50.923Z,63.10
2023-01-05T03:55:25.367Z,63.20
2023-01-05T03:56:59.663Z,63.20
2023-01-05T03:58:34.535Z,63.50
2023-01-05T04:00:09.873Z,63.60
2023-01-05T04:02:05.742Z,63.60
2023-01-05T04:03:40.659Z,63.50
2023-01-05T04:05:13.601Z,63.60
2023-01-05T04:06:47.391Z,63.40
2023-01-05T04:08:22.213Z,64.40
2023-01-05T04:09:56.135Z,63.30
2023-01-05T04:11:29.679Z,63.30
2023-01-05T04:13:08.195Z,63.30
2023-01-05T04:14:42.167Z,63.40
2023-01-05T04:16:15.840Z,63.70
2023-01-05T04:17:50.656Z,63.70
2023-01-05T04:19:23.796Z,63.60
2023-01-05T04:20:59.762Z,63.60
2023-01-05T04:22:33.028Z,63.60
2023-01-05T04:24:07.606Z,63.80
2023-01-05T04:25:43.049Z,64.10
2023-01-05T04:27:22.719Z,64.10
2023-01-05T04:28:57.154Z,64.10
2023-01-05T04:30:31.881Z,64.10
2023-01-05T04:32:05.797Z,64.30
2023-01-05T04:33:45.273Z,64.50
2023-01-05T04:35:22.422Z,63.70
2023-01-05T04:37:02.256Z,64.30
2023-01-05T04:38:37.495Z,63.90
2023-01-05T04:40:13.007Z,64.40
2023-01-05T04:41:53.453Z,64.60
2023-01-05T04:43:27.413Z,64.30
2023-01-05T04:45:03.807Z,64.40
2023-01-05T04:46:37.597Z,64.50
2023-01-05T04:48:10.979Z,64.40
2023-01-05T04:49:47.382Z,64.50
2023-01-05T04:51:21.984Z,64.70
2023-01-05T04:52:55.411Z,64.40
2023-01-05T04:54:28.986Z,64.90
2023-01-05T04:56:02.494Z,64.60
2023-01-05T04:57:40.651Z,64.80
2023-01-05T04:59:17.531Z,64.90
2023-01-05T05:00:50.957Z,64.80
2023-01-05T05:02:24.479Z,64.90
2023-01-05T05:03:58.318Z,64.90
2023-01-05T05:05:33.845Z,65.00
2023-01-05T05:07:08.033Z,65.20
2023-01-05T05:08:41.185Z,65.40
2023-01-05T05:10:18.075Z,65.40
2023-01-05T05:11:52.659Z,65.50
2023-01-05T05:13:27.784Z,65.60
2023-01-05T05:15:01.046Z,65.60
2023-01-05T05:16:36.531Z,65.80
2023-01-05T05:18:12.201Z,66.10
2023-01-05T05:19:46.456Z,66.20
2023-01-05T05:21:21.511Z,66.30
2023-01-05T05:22:53.887Z,66.40
2023-01-05T05:24:27.691Z,66.30
2023-01-05T05:26:00.947Z,66.40
2023-01-05T05:27:34.294Z,66.50
2023-01-05T05:29:07.418Z,66.60
2023-01-05T05:30:40.739Z,66.50
2023-01-05T05:32:13.997Z,66.60
2023-01-05T05:33:47.185Z,66.60
2023-01-05T05:35:20.481Z,66.70
2023-01-05T05:36:55.955Z,66.80
2023-01-05T05:38:28.363Z,66.80
2023-01-05T05:40:01.541Z,66.90
2023-01-05T05:41:34.819Z,67.00
2023-01-05T05:43:07.981Z,67.00
2023-01-05T05:44:41.963Z,67.00
2023-01-05T05:46:15.157Z,67.20
2023-01-05T05:47:48.392Z,67.10
2023-01-05T05:49:21.505Z,67.20
2023-01-05T05:50:55.402Z,67.30
2023-01-05T05:52:30.054Z,67.40
2023-01-05T05:54:03.284Z,67.50
2023-01-05T05:55:36.646Z,67.50
2023-01-05T05:57:09.929Z,67.20
2023-01-05T05:58:43.197Z,67.50
2023-01-05T06:00:17.346Z,67.40
2023-01-05T06:01:52.352Z,67.50
2023-01-05T06:03:25.919Z,67.50
2023-01-05T06:04:59.323Z,67.40
2023-01-05T06:06:32.784Z,67.40
2023-01-05T06:08:07.641Z,67.30
2023-01-05T06:09:40.619Z,67.50
2023-01-05T06:11:13.926Z,67.70
2023-01-05T06:12:47.245Z,67.30
2023-01-05T06:14:20.570Z,67.30
2023-01-05T06:15:53.801Z,67.30
2023-01-05T06:17:27.034Z,67.30
2023-01-05T06:19:00.142Z,67.50
2023-01-05T06:20:33.563Z,67.50
2023-01-05T06:22:06.752Z,67.50
2023-01-05T06:23:41.300Z,67.70
2023-01-05T06:25:14.784Z,67.70
2023-01-05T06:26:48.159Z,67.70
2023-01-05T06:28:21.521Z,67.80
2023-01-05T06:29:54.667Z,68.00
2023-01-05T06:31:28.623Z,68.00
2023-01-05T06:33:01.818Z,68.20
2023-01-05T06:34:35.142Z,68.00
2023-01-05T06:36:09.290Z,67.90
2023-01-05T06:37:42.429Z,68.00
2023-01-05T06:39:17.171Z,67.80
2023-01-05T06:40:50.308Z,68.00
2023-01-05T06:42:23.967Z,68.00
2023-01-05T06:43:57.343Z,68.00
2023-01-05T06:45:30.547Z,68.00
2023-01-05T06:47:03.936Z,68.00
2023-01-05T06:48:37.032Z,68.10
2023-01-05T06:50:11.712Z,68.10
2023-01-05T06:51:45.532Z,68.30
2023-01-05T06:53:19.510Z,68.20
2023-01-05T06:54:53.951Z,68.00
2023-01-05T06:56:27.415Z,68.00
2023-01-05T06:58:01.539Z,68.00
2023-01-05T06:59:35.148Z,67.90
2023-01-05T07:01:08.575Z,68.30
2023-01-05T07:02:41.860Z,68.50
2023-01-05T07:04:15.030Z,68.40
2023-01-05T07:05:48.199Z,68.40
2023-01-05T07:07:21.440Z,68.40
2023-01-05T07:08:54.720Z,68.30
2023-01-05T07:10:30.327Z,68.40
2023-01-05T07:12:03.422Z,68.40
2023-01-05T07:13:37.376Z,68.50
2023-01-05T07:15:11.722Z,68.50
2023-01-05T07:16:44.951Z,68.60
2023-01-05T07:18:18.134Z,68.50
2023-01-05T07:19:51.387Z,68.60
2023-01-05T07:21:24.554Z,68.60
2023-01-05T07:22:57.779Z,68.50
2023-01-05T07:24:31.085Z,68.60
2023-01-05T07:26:06.237Z,68.60
2023-01-05T07:27:39.441Z,68.70
2023-01-05T07:29:12.562Z,68.60
2023-01-05T07:30:52.699Z,68.80
2023-01-05T07:32:25.995Z,68.90
2023-01-05T07:33:59.198Z,68.70
2023-01-05T07:35:33.818Z,68.70
2023-01-05T07:37:07.069Z,68.90
2023-01-05T07:38:40.273Z,68.70
2023-01-05T07:40:14.015Z,68.70
2023-01-05T07:41:48.890Z,68.70
2023-01-05T07:43:23.077Z,68.80
2023-01-05T07:44:56.252Z,68.80
2023-01-05T07:46:29.453Z,68.90
2023-01-05T07:48:03.751Z,68.80
2023-01-05T07:49:36.873Z,69.00
2023-01-05T07:51:12.428Z,68.90
2023-01-05T07:52:45.792Z,69.10
2023-01-05T07:54:21.409Z,69.00
2023-01-05T07:55:59.056Z,69.00
2023-01-05T07:57:33.686Z,69.20
2023-01-05T07:59:06.970Z,69.00
2023-01-05T08:00:40.091Z,69.00
2023-01-05T08:02:13.431Z,68.90
2023-01-05T08:03:47.372Z,68.90
2023-01-05T08:05:20.727Z,68.80
2023-01-05T08:06:54.030Z,68.70
2023-01-05T08:08:27.354Z,68.70
2023-01-05T08:10:18.159Z,68.70
2023-01-05T08:11:51.394Z,68.80
2023-01-05T08:13:43.562Z,68.90
2023-01-05T08:15:17.181Z,68.90
2023-01-05T08:16:51.580Z,68.90
2023-01-05T08:18:25.186Z,69.00
2023-01-05T08:19:58.362Z,68.80
2023-01-05T08:21:31.617Z,68.70
2023-01-05T08:23:04.857Z,68.80
2023-01-05T08:24:38.382Z,68.80
2023-01-05T08:26:15.791Z,68.80
2023-01-05T08:27:49.498Z,68.90
2023-01-05T08:29:24.138Z,68.90
2023-01-05T08:31:02.863Z,68.80
2023-01-05T08:32:36.163Z,69.20
2023-01-05T08:34:12.612Z,68.80
2023-01-05T08:35:48.433Z,68.70
2023-01-05T08:37:23.668Z,68.90
2023-01-05T08:38:57.263Z,68.80
2023-01-05T08:40:30.527Z,68.80
2023-01-05T08:42:03.845Z,68.80
2023-01-05T08:43:36.983Z,68.70
2023-01-05T08:45:12.425Z,68.70
2023-01-05T08:46:46.582Z,68.90
2023-01-05T08:48:20.116Z,68.70
2023-01-05T08:49:53.336Z,68.80
2023-01-05T08:51:27.363Z,68.70
2023-01-05T08:53:00.502Z,68.90
2023-01-05T08:54:33.732Z,68.80
2023-01-05T08:56:07.768Z,68.90
2023-01-05T08:57:40.944Z,69.00
2023-01-05T08:59:14.953Z,69.00
2023-01-05T09:00:49.468Z,69.10
2023-01-05T09:02:25.725Z,68.90
2023-01-05T09:03:59.494Z,68.80
2023-01-05T09:05:33.483Z,68.80
2023-01-05T09:07:06.714Z,68.80
2023-01-05T09:08:42.396Z,68.90
2023-01-05T09:10:15.897Z,69.10
2023-01-05T09:11:48.986Z,69.00
2023-01-05T09:13:22.179Z,69.90
2023-01-05T09:14:55.254Z,69.00
2023-01-05T09:17:05.142Z,69.10
2023-01-05T09:18:25.766Z,69.20
2023-01-05T09:19:58.957Z,69.00
2023-01-05T09:21:32.122Z,69.10
2023-01-05T09:23:05.694Z,69.30
2023-01-05T09:24:38.995Z,69.40
2023-01-05T09:26:15.283Z,69.40
2023-01-05T09:27:48.470Z,69.60
2023-01-05T09:29:21.842Z,69.50
2023-01-05T09:30:55.138Z,69.60
2023-01-05T09:32:29.682Z,69.70
2023-01-05T09:34:02.875Z,69.70
2023-01-05T09:35:41.173Z,69.70
2023-01-05T09:37:14.371Z,69.70
2023-01-05T09:38:50.256Z,69.70
2023-01-05T09:40:23.693Z,69.70
2023-01-05T09:42:01.565Z,69.40
2023-01-05T09:43:41.722Z,69.60
2023-01-05T09:45:25.212Z,69.50
2023-01-05T09:47:04.417Z,69.40
2023-01-05T09:48:45.112Z,69.40
2023-01-05T09:50:22.003Z,69.30
2023-01-05T09:52:01.500Z,69.40
2023-01-05T09:53:35.050Z,69.30
2023-01-05T09:55:17.954Z,69.10
2023-01-05T09:57:08.915Z,69.40
2023-01-05T09:58:46.258Z,69.40
2023-01-05T10:00:21.758Z,69.40
2023-01-05T10:02:00.878Z,69.30
2023-01-05T10:05:40.577Z,69.10
2023-01-05T10:07:30.452Z,69.10
2023-01-05T10:09:08.115Z,69.20
2023-01-05T10:11:08.158Z,69.10
2023-01-05T10:13:06.713Z,69.20
2023-01-05T10:14:46.453Z,69.20
2023-01-05T10:16:21.424Z,69.30
2023-01-05T10:17:58.030Z,69.30
2023-01-05T10:19:32.593Z,69.30
2023-01-05T10:21:21.159Z,69.00
2023-01-05T10:23:07.373Z,69.00
2023-01-05T10:24:56.141Z,69.00
2023-01-05T10:27:14.005Z,68.80
2023-01-05T10:28:43.100Z,68.90
2023-01-05T10:30:24.530Z,68.70
2023-01-05T10:32:12.133Z,68.50
2023-01-05T10:33:56.664Z,68.50
2023-01-05T10:36:01.822Z,68.60
2023-01-05T10:37:59.778Z,68.70
2023-01-05T10:39:56.570Z,68.70
2023-01-05T10:41:42.943Z,68.60
2023-01-05T10:43:56.272Z,68.50
2023-01-05T10:45:34.769Z,68.70
2023-01-05T10:47:10.299Z,68.70
2023-01-05T10:48:44.095Z,68.80
2023-01-05T10:50:38.188Z,68.50
2023-01-05T10:52:16.027Z,68.60
2023-01-05T10:53:49.904Z,68.60
2023-01-05T10:55:25.111Z,68.50
2023-01-05T10:57:37.032Z,68.40
2023-01-05T10:59:15.161Z,68.30
2023-01-05T11:00:49.772Z,68.30
2023-01-05T11:02:24.391Z,68.30
2023-01-05T11:04:29.405Z,68.30
2023-01-05T11:06:02.251Z,68.40
2023-01-05T11:07:50.522Z,68.40
2023-01-05T11:09:27.681Z,68.50
2023-01-05T11:11:04.087Z,68.70
2023-01-05T11:12:39.050Z,68.60
2023-01-05T11:14:17.490Z,68.50
2023-01-05T11:15:55.777Z,68.70
2023-01-05T11:17:39.588Z,68.80
2023-01-05T11:19:18.152Z,68.70
2023-01-05T11:21:15.516Z,68.80
2023-01-05T11:22:49.768Z,68.70
2023-01-05T11:24:32.539Z,68.40
2023-01-05T11:26:28.292Z,68.60
2023-01-05T11:28:14.744Z,68.70
2023-01-05T11:30:18.260Z,68.70
2023-01-05T11:31:56.120Z,68.80
2023-01-05T11:33:33.654Z,68.60
2023-01-05T11:35:20.738Z,68.40
2023-01-05T11:37:02.570Z,68.40
2023-01-05T11:38:41.115Z,68.40
2023-01-05T11:40:20.666Z,68.20
2023-01-05T11:42:14.786Z,67.70
2023-01-05T11:43:54.159Z,68.40
2023-01-05T11:45:33.697Z,68.60
2023-01-05T11:47:09.530Z,68.80
2023-01-05T11:48:54.011Z,69.00
2023-01-05T11:50:29.866Z,69.90
2023-01-05T11:52:03.120Z,69.10
2023-01-05T11:53:41.444Z,68.80
2023-01-05T11:55:34.015Z,68.70
2023-01-05T11:57:19.288Z,68.40
2023-01-05T11:58:56.168Z,68.20
2023-01-05T12:00:35.983Z,68.20
2023-01-05T12:02:53.850Z,68.00
2023-01-05T12:04:56.843Z,67.50
2023-01-05T12:06:50.623Z,67.60
2023-01-05T12:08:32.019Z,67.70
2023-01-05T12:10:30.349Z,67.40
2023-01-05T12:12:40.404Z,66.70
2023-01-05T12:14:45.934Z,66.40
2023-01-05T12:16:39.976Z,66.50
2023-01-05T12:18:45.620Z,66.40
2023-01-05T12:20:47.065Z,66.40
2023-01-05T12:22:48.819Z,66.50
2023-01-05T12:24:50.361Z,66.60
2023-01-05T12:26:29.338Z,66.20
2023-01-05T12:28:41.169Z,66.30
2023-01-05T12:35:24.698Z,66.10
2023-01-05T12:37:17.848Z,65.60
2023-01-05T12:39:14.935Z,65.70
2023-01-05T12:41:34.775Z,65.70
2023-01-05T12:43:14.981Z,65.50
2023-01-05T12:45:25.447Z,65.60
2023-01-05T12:47:19.558Z,65.40
2023-01-05T12:48:58.746Z,65.30
2023-01-05T12:50:42.897Z,65.20
2023-01-05T12:52:23.084Z,65.10
2023-01-05T12:54:04.694Z,65.20
2023-01-05T12:55:44.565Z,65.10
2023-01-05T12:57:29.898Z,65.00
2023-01-05T12:59:19.599Z,65.00
2023-01-05T13:00:57.548Z,65.00
2023-01-05T13:02:37.568Z,64.80
2023-01-05T13:04:34.307Z,64.60
2023-01-05T13:06:17.505Z,64.70
2023-01-05T13:07:56.943Z,64.70
2023-01-05T13:09:33.808Z,64.70
2023-01-05T13:11:18.571Z,64.70
2023-01-05T13:12:59.977Z,64.60
2023-01-05T13:14:37.936Z,64.60
2023-01-05T13:16:18.918Z,64.40
2023-01-05T13:17:56.028Z,64.40
2023-01-05T13:19:38.207Z,64.50
2023-01-05T13:21:15.182Z,64.50
2023-01-05T13:22:52.380Z,64.70
2023-01-05T13:24:33.495Z,64.80
2023-01-05T13:26:12.078Z,64.70
2023-01-05T13:27:46.041Z,65.00
2023-01-05T13:29:25.888Z,65.10
2023-01-05T13:31:32.270Z,65.20
2023-01-05T13:33:36.176Z,65.60
2023-01-05T13:35:37.633Z,65.90
2023-01-05T13:38:04.763Z,65.90
2023-01-05T13:40:09.555Z,66.20
2023-01-05T13:42:11.105Z,66.30
2023-01-05T13:44:19.721Z,66.40
2023-01-05T13:46:30.688Z,66.40
2023-01-05T13:48:45.228Z,66.50
2023-01-05T13:51:07.299Z,66.60
2023-01-05T13:53:02.646Z,66.40
2023-01-05T13:54:59.895Z,66.30
2023-01-05T13:56:39.941Z,66.40
2023-01-05T13:58:43.817Z,65.80
2023-01-05T14:00:28.058Z,65.70
2023-01-05T14:02:04.340Z,65.40
2023-01-05T14:03:41.618Z,65.50
2023-01-05T14:05:27.547Z,65.40
2023-01-05T14:07:05.769Z,65.10
2023-01-05T14:08:42.017Z,65.40
2023-01-05T14:10:28.106Z,65.40
2023-01-05T14:12:44.725Z,65.30
2023-01-05T14:16:57.126Z,64.60
2023-01-05T14:18:52.748Z,64.30
2023-01-05T14:20:38.043Z,63.90
2023-01-05T14:22:36.267Z,64.40
2023-01-05T14:24:31.904Z,64.80
2023-01-05T14:26:06.464Z,65.00
2023-01-05T14:28:22.911Z,65.20
2023-01-05T14:30:04.490Z,65.10
2023-01-05T14:31:39.344Z,65.00
2023-01-05T14:33:13.298Z,64.80
2023-01-05T14:34:52.046Z,64.50
2023-01-05T14:36:30.335Z,64.60
2023-01-05T14:38:08.278Z,64.70
2023-01-05T14:39:46.089Z,64.80
2023-01-05T14:41:26.895Z,64.90
2023-01-05T14:43:03.043Z,64.60
2023-01-05T14:44:44.861Z,64.30
2023-01-05T14:46:18.310Z,64.10
2023-01-05T14:47:57.315Z,63.80
2023-01-05T14:49:36.630Z,63.40
2023-01-05T14:51:20.831Z,63.50
2023-01-05T14:52:58.942Z,63.10
2023-01-05T14:55:21.800Z,63.40
2023-01-05T14:57:39.388Z,63.40
2023-01-05T14:59:25.535Z,63.40
2023-01-05T15:01:04.182Z,63.40
2023-01-05T15:02:53.333Z,63.50
2023-01-05T15:04:33.531Z,63.40
2023-01-05T15:06:16.557Z,63.50
2023-01-05T15:08:07.242Z,63.70
2023-01-05T15:10:16.498Z,63.60
2023-01-05T15:12:42.676Z,63.60
2023-01-05T15:14:51.299Z,63.40
2023-01-05T15:16:44.228Z,63.40
2023-01-05T15:18:56.159Z,63.30
2023-01-05T15:21:39.113Z,63.40
2023-01-05T15:23:37.373Z,63.40
2023-01-05T15:25:39.214Z,63.40
2023-01-05T15:27:55.458Z,63.30
2023-01-05T15:29:57.490Z,63.30
2023-01-05T15:31:39.886Z,63.10
2023-01-05T15:33:19.530Z,63.10
2023-01-05T15:34:57.970Z,63.10
2023-01-05T15:36:38.790Z,63.10
2023-01-05T15:38:22.161Z,63.40
2023-01-05T15:39:58.080Z,63.60
2023-01-05T15:41:31.324Z,63.70
2023-01-05T15:43:05.635Z,63.70
2023-01-05T15:44:45.720Z,63.70
2023-01-05T15:46:23.695Z,63.70
2023-01-05T15:48:09.755Z,63.70
2023-01-05T15:49:43.261Z,63.70
2023-01-05T15:51:25.735Z,63.60
2023-01-05T15:53:02.082Z,63.80
2023-01-05T15:54:36.704Z,63.80
2023-01-05T15:56:32.111Z,63.80
2023-01-05T15:58:16.715Z,63.90
2023-01-05T15:59:51.905Z,64.00
2023-01-05T16:01:27.444Z,63.90
2023-01-05T16:03:02.191Z,64.10
2023-01-05T16:04:35.498Z,64.20
2023-01-05T16:06:15.451Z,64.20
2023-01-05T16:07:57.847Z,64.30
2023-01-05T16:09:38.047Z,64.50
2023-01-05T16:11:16.107Z,64.60
2023-01-05T16:12:55.523Z,64.60
2023-01-05T16:14:36.809Z,64.70
2023-01-05T16:16:49.618Z,64.70
2023-01-05T16:18:20.556Z,64.80
2023-01-05T16:19:57.653Z,64.80
2023-01-05T16:21:37.310Z,64.80
2023-01-05T16:23:17.128Z,65.80
2023-01-05T16:24:59.659Z,65.10
2023-01-05T16:26:37.444Z,65.20
2023-01-05T16:28:18.888Z,65.30
2023-01-05T16:29:52.423Z,65.30
2023-01-05T16:31:31.609Z,65.20
2023-01-05T16:33:11.778Z,65.30
2023-01-05T16:34:44.933Z,65.40
2023-01-05T16:36:21.717Z,65.50
2023-01-05T16:38:23.387Z,65.60
2023-01-05T16:40:04.104Z,65.60
2023-01-05T16:41:57.587Z,65.50
2023-01-05T16:43:38.384Z,65.50
2023-01-05T16:45:24.690Z,65.60
2023-01-05T16:47:06.993Z,65.70
2023-01-05T16:48:49.583Z,66.00
2023-01-05T16:50:55.815Z,65.70
2023-01-05T16:52:39.020Z,65.90
2023-01-05T16:54:23.659Z,65.60
2023-01-05T16:56:00.700Z,66.00
2023-01-05T16:57:42.686Z,65.80
2023-01-05T16:59:44.943Z,66.00
2023-01-05T17:01:34.314Z,66.30
2023-01-05T17:03:31.689Z,66.30
2023-01-05T17:05:06.304Z,66.50
2023-01-05T17:06:40.491Z,66.30
2023-01-05T17:08:21.998Z,66.40
2023-01-05T17:09:55.846Z,66.40
2023-01-05T17:11:37.431Z,66.30
2023-01-05T17:13:19.656Z,66.50
2023-01-05T17:15:03.710Z,66.50
2023-01-05T17:16:37.053Z,66.70
2023-01-05T17:18:18.456Z,66.60
2023-01-05T17:19:54.616Z,66.90
2023-01-05T17:21:33.364Z,66.80
2023-01-05T17:23:06.712Z,66.90
2023-01-05T17:24:41.448Z,67.00
2023-01-05T17:26:20.286Z,67.20
2023-01-05T17:27:54.956Z,67.20
2023-01-05T17:29:31.161Z,67.10
2023-01-05T17:31:04.674Z,67.30
2023-01-05T17:32:38.114Z,67.20
2023-01-05T17:34:11.587Z,67.20
2023-01-05T17:37:19.676Z,67.40
2023-01-05T17:38:59.116Z,67.60
2023-01-05T17:40:37.666Z,67.30
2023-01-05T17:44:18.653Z,67.50
2023-01-05T17:45:53.662Z,67.60
2023-01-05T17:47:29.860Z,67.70
2023-01-05T17:49:04.024Z,67.70
2023-01-05T17:50:37.812Z,67.90
2023-01-05T17:52:14.613Z,67.90
2023-01-05T17:53:48.684Z,68.10
2023-01-05T17:55:23.067Z,68.00
2023-01-05T17:56:56.348Z,68.00
2023-01-05T17:58:29.752Z,68.00
2023-01-05T18:00:06.572Z,67.90
2023-01-05T18:01:39.836Z,68.30
2023-01-05T18:03:17.094Z,68.30
2023-01-05T18:04:51.398Z,68.60
2023-01-05T18:06:25.720Z,68.60
2023-01-05T18:07:59.065Z,68.70
2023-01-05T18:09:37.982Z,68.70
2023-01-05T18:11:11.291Z,68.70
2023-01-05T18:12:44.663Z,68.70
2023-01-05T18:14:18.782Z,68.90
2023-01-05T18:15:55.375Z,68.90
2023-01-05T18:17:28.691Z,69.00
2023-01-05T18:19:02.425Z,69.00
2023-01-05T18:22:15.287Z,69.00
2023-01-05T18:23:48.681Z,69.10
2023-01-05T18:25:22.305Z,69.00
2023-01-05T18:26:56.163Z,69.00
2023-01-05T18:28:29.972Z,68.90
2023-01-05T18:30:03.932Z,68.90
2023-01-05T18:31:41.863Z,68.90
2023-01-05T18:33:16.778Z,68.90
2023-01-05T18:34:50.111Z,68.90
2023-01-05T18:36:23.518Z,68.90
2023-01-05T18:37:59.214Z,68.90
2023-01-05T18:39:32.629Z,68.90
2023-01-05T18:41:09.847Z,69.00
2023-01-05T18:42:48.284Z,69.00
2023-01-05T18:44:22.783Z,69.10
2023-01-05T18:45:56.625Z,69.10
2023-01-05T18:47:31.593Z,69.10
2023-01-05T18:49:05.737Z,69.10
2023-01-05T18:50:49.872Z,69.20
2023-01-05T18:52:23.188Z,69.10
2023-01-05T18:53:57.601Z,69.10
2023-01-05T18:55:30.857Z,69.10
2023-01-05T18:57:04.697Z,69.20
2023-01-05T18:58:38.853Z,69.00
2023-01-05T19:00:14.426Z,69.20
2023-01-05T19:01:48.832Z,69.20
2023-01-05T19:03:23.661Z,69.10
2023-01-05T19:04:57.110Z,69.20
2023-01-05T19:06:30.642Z,69.10
2023-01-05T19:08:03.781Z,69.20
2023-01-05T19:09:38.621Z,69.10
2023-01-05T19:11:15.760Z,69.30
2023-01-05T19:12:53.349Z,69.20
2023-01-05T19:14:27.579Z,69.20
2023-01-05T19:16:02.777Z,69.30
2023-01-05T19:17:41.257Z,69.50
2023-01-05T19:19:16.983Z,69.20
2023-01-05T19:20:58.907Z,69.40
2023-01-05T19:22:32.061Z,69.30
2023-01-05T19:24:08.375Z,69.20
2023-01-05T19:25:43.626Z,69.30
2023-01-05T19:27:17.535Z,69.40
2023-01-05T19:28:51.485Z,69.30
2023-01-05T19:30:25.666Z,69.40
2023-01-05T19:31:59.078Z,69.50
2023-01-05T19:33:32.344Z,69.50
2023-01-05T19:35:07.751Z,69.50
2023-01-05T19:36:41.935Z,69.60
2023-01-05T19:38:15.105Z,70.30
2023-01-05T19:39:48.902Z,69.50
2023-01-05T19:41:25.430Z,69.20
2023-01-05T19:42:58.842Z,69.50
2023-01-05T19:44:32.155Z,69.50
2023-01-05T19:46:07.635Z,69.50
2023-01-05T19:47:42.799Z,69.50
2023-01-05T19:49:18.795Z,69.40
2023-01-05T19:50:59.767Z,69.50
2023-01-05T19:52:33.747Z,69.90
2023-01-05T19:54:07.152Z,69.40
2023-01-05T19:55:40.796Z,69.40
2023-01-05T19:57:14.233Z,69.30
2023-01-05T19:58:54.658Z,69.40
2023-01-05T20:00:27.949Z,69.40
2023-01-05T20:02:07.705Z,69.30
2023-01-05T20:03:43.426Z,69.40
2023-01-05T20:05:17.528Z,69.40
2023-01-05T20:06:52.281Z,69.40
2023-01-05T20:08:26.828Z,69.30
2023-01-05T20:10:00.041Z,69.30
2023-01-05T20:11:37.938Z,69.30
2023-01-05T20:13:11.464Z,69.30
2023-01-05T20:14:45.000Z,69.20
2023-01-05T20:16:19.084Z,69.20
2023-01-05T20:17:52.495Z,69.40
2023-01-05T20:19:28.158Z,69.40
2023-01-05T20:21:04.092Z,69.30
2023-01-05T20:22:38.811Z,69.40
2023-01-05T20:24:14.885Z,69.40
2023-01-05T20:25:48.119Z,69.60
2023-01-05T20:27:21.501Z,69.20
2023-01-05T20:28:56.346Z,69.20
2023-01-05T20:30:29.798Z,69.20
2023-01-05T20:32:07.232Z,69.20
2023-01-05T20:33:45.774Z,69.20
2023-01-05T20:35:19.772Z,69.20
2023-01-05T20:36:53.963Z,69.10
2023-01-05T20:38:28.523Z,69.10
2023-01-05T20:40:04.537Z,69.10
2023-01-05T20:41:41.991Z,69.20
2023-01-05T20:43:15.681Z,69.30
2023-01-05T20:44:49.976Z,69.20
2023-01-05T20:46:27.100Z,69.30
2023-01-05T20:48:00.412Z,69.40
2023-01-05T20:49:34.391Z,69.30
2023-01-05T20:51:15.711Z,69.30
2023-01-05T20:52:49.707Z,69.30
2023-01-05T20:54:24.833Z,69.20
2023-01-05T20:55:58.126Z,69.30
2023-01-05T20:57:31.347Z,69.30
2023-01-05T20:59:06.409Z,69.40
2023-01-05T21:01:10.648Z,69.40
2023-01-05T21:02:35.786Z,69.40
2023-01-05T21:04:09.448Z,69.20
2023-01-05T21:05:42.773Z,69.30
2023-01-05T21:07:16.172Z,69.30
2023-01-05T21:08:51.309Z,69.30
2023-01-05T21:10:26.082Z,69.40
2023-01-05T21:12:00.630Z,70.10
2023-01-05T21:13:34.299Z,69.50
2023-01-05T21:15:09.425Z,69.40
2023-01-05T21:16:45.934Z,69.50
2023-01-05T21:18:19.267Z,70.30
2023-01-05T21:19:52.395Z,69.50
2023-01-05T21:21:27.991Z,69.60
2023-01-05T21:23:01.135Z,69.70
2023-01-05T21:24:34.416Z,69.60
2023-01-05T21:26:10.923Z,69.60
2023-01-05T21:27:47.062Z,69.70
2023-01-05T21:29:23.025Z,69.70
2023-01-05T21:30:56.136Z,69.80
2023-01-05T21:32:29.380Z,69.70
2023-01-05T21:34:02.847Z,69.70
2023-01-05T21:35:36.200Z,69.70
2023-01-05T21:37:09.587Z,69.70
2023-01-05T21:39:00.719Z,69.70
2023-01-05T21:40:36.258Z,69.70